Brunswick, Ohio
Current Conditions -  °F | °C
As of 12:51 PM on Friday 21 Nov 2014 (Local Time) from KCLE Reporting Station
Light Snow Light Snow  
Wind Chill: 12°   Ceiling: 3100
Heat Index: 22°   Visibility: 4mi
Dew Point: 15°   Wind: 9mph
Humidity: 75%   Direction: 240°WSW
Pressure: 30.51"   Gusts: NA
Location:  41.24°N, 81.84°W
Report Text: KCLE 211751Z 24008KT 4SM -SN FEW019 BKN031 OVC038 M06/M09 A3051 RMK AO2 SLP344 4/004 933004 P0000 60000 T10561094 11056 21067 51014 $
Loading
Personal Weather Stations






























Interactive Weather Map New forecast layout! Learn more

10-Day Weather Forecast

Advertisements
Track Severe Weather on mobile